createdAt,value
2018-10-19T00:00:51.906Z,4.83
2018-10-19T00:03:20.577Z,5.87
2018-10-19T00:05:49.223Z,6.90
2018-10-19T00:08:17.865Z,7.23
2018-10-19T00:10:46.508Z,9.70
2018-10-19T00:13:15.176Z,8.70
2018-10-19T00:15:43.845Z,5.20
2018-10-19T00:18:12.489Z,7.93
2018-10-19T00:20:41.145Z,6.47
2018-10-19T00:23:09.850Z,7.03
2018-10-19T00:25:38.431Z,8.73
2018-10-19T00:28:07.060Z,7.10
2018-10-19T00:30:35.704Z,8.17
2018-10-19T00:33:04.370Z,5.00
2018-10-19T00:35:33.021Z,10.20
2018-10-19T00:38:01.639Z,9.50
2018-10-19T00:40:30.290Z,7.23
2018-10-19T00:42:58.944Z,3.67
2018-10-19T00:45:32.918Z,4.53
2018-10-19T00:48:09.376Z,6.60
2018-10-19T00:50:38.032Z,8.23
2018-10-19T00:53:07.265Z,4.27
2018-10-19T00:55:36.209Z,5.77
2018-10-19T00:58:05.004Z,8.83
2018-10-19T01:00:34.102Z,10.03
2018-10-19T01:03:02.790Z,6.90
2018-10-19T01:05:31.416Z,7.90
2018-10-19T01:08:00.106Z,7.07
2018-10-19T01:10:28.756Z,8.63
2018-10-19T01:12:58.522Z,8.03
2018-10-19T01:15:28.290Z,7.93
2018-10-19T01:17:57.274Z,9.43
2018-10-19T01:20:26.094Z,5.73
2018-10-19T01:22:54.898Z,6.30
2018-10-19T01:25:24.080Z,7.30
2018-10-19T19:08:21.127Z,15.17
2018-10-19T19:10:49.796Z,13.77
2018-10-19T19:13:23.999Z,15.30
2018-10-19T19:15:52.705Z,17.77
2018-10-19T19:18:21.426Z,18.47
2018-10-19T19:20:50.049Z,18.53
2018-10-19T19:23:18.818Z,18.20
2018-10-19T19:25:52.945Z,15.57
2018-10-19T19:28:21.606Z,13.77
2018-10-19T19:30:50.297Z,15.23
2018-10-19T19:33:24.399Z,16.53
2018-10-19T19:35:53.101Z,15.07
2018-10-19T19:38:21.799Z,10.63
2018-10-19T19:40:55.918Z,14.00
2018-10-19T19:43:24.529Z,9.80
2018-10-19T19:45:53.216Z,18.13
2018-10-19T19:48:27.406Z,12.40
2018-10-19T19:50:56.102Z,15.17
2018-10-19T19:53:24.770Z,17.80
2018-10-19T19:55:53.445Z,15.80
2018-10-19T19:58:22.122Z,15.20
2018-10-19T20:00:50.998Z,11.77
2018-10-19T20:03:19.886Z,13.17
2018-10-19T20:05:48.552Z,16.43
2018-10-19T20:08:17.359Z,21.03
2018-10-19T20:10:45.926Z,18.90
2018-10-19T20:13:14.636Z,12.67
2018-10-19T20:15:43.300Z,16.70
2018-10-19T20:18:12.189Z,15.47
2018-10-19T20:20:40.982Z,14.27
2018-10-19T20:23:09.826Z,14.37
2018-10-19T20:25:39.298Z,19.63
2018-10-19T20:28:07.951Z,12.37
2018-10-19T20:30:36.657Z,12.73
2018-10-19T20:33:05.476Z,18.23
2018-10-19T20:35:34.196Z,25.27
2018-10-19T20:38:02.900Z,16.57
2018-10-19T20:40:38.010Z,21.97
2018-10-19T20:43:06.736Z,16.47
2018-10-19T20:45:35.393Z,15.57
2018-10-19T20:48:04.348Z,14.67
2018-10-19T20:50:33.005Z,13.20
2018-10-19T20:53:02.600Z,14.70
2018-10-19T20:55:31.297Z,20.03
2018-10-19T20:57:59.958Z,15.60
2018-10-19T21:00:28.625Z,12.10
2018-10-19T21:02:57.722Z,14.50
2018-10-19T21:05:26.401Z,11.10
2018-10-19T21:07:55.077Z,16.87
2018-10-19T21:10:23.760Z,13.27
2018-10-19T21:12:52.403Z,15.63
2018-10-19T21:15:21.145Z,14.50
2018-10-19T21:17:50.395Z,14.13
2018-10-19T21:20:19.145Z,10.97
2018-10-19T21:22:47.841Z,18.43
2018-10-19T21:25:16.781Z,19.00
2018-10-19T21:27:45.435Z,16.37
2018-10-19T21:30:14.112Z,18.13
2018-10-19T21:32:43.058Z,21.73
2018-10-19T21:35:12.336Z,12.67
2018-10-19T21:37:41.107Z,21.83
2018-10-19T21:40:09.865Z,20.93
2018-10-19T21:42:39.491Z,19.63
2018-10-19T21:45:09.037Z,12.60
2018-10-19T21:47:37.778Z,17.47
2018-10-19T21:50:07.003Z,15.77
2018-10-19T21:52:35.658Z,17.33
2018-10-19T21:55:04.363Z,20.27
2018-10-19T21:57:33.074Z,15.47
2018-10-19T22:00:01.738Z,20.77
2018-10-19T22:02:30.410Z,16.00
2018-10-19T22:04:59.076Z,16.53
2018-10-19T22:07:27.794Z,12.37
2018-10-19T22:09:56.430Z,17.60
2018-10-19T22:12:25.096Z,20.67
2018-10-19T22:14:53.755Z,22.43
2018-10-19T22:17:22.456Z,22.33
2018-10-19T22:19:51.276Z,22.43
2018-10-19T22:22:19.927Z,16.00
2018-10-19T22:24:48.600Z,20.00
2018-10-19T22:27:17.228Z,23.40
2018-10-19T22:29:45.928Z,17.37
2018-10-19T22:32:14.640Z,18.37
2018-10-19T22:34:43.332Z,13.30
2018-10-19T22:37:12.142Z,18.67
2018-10-19T22:39:40.788Z,13.40
2018-10-19T22:42:09.445Z,14.83
2018-10-19T22:44:38.082Z,14.07
2018-10-19T22:47:06.795Z,15.57
2018-10-19T22:49:35.448Z,15.57
2018-10-19T22:52:04.081Z,17.67
2018-10-19T22:54:32.932Z,14.87
2018-10-19T22:57:01.591Z,12.60
2018-10-19T22:59:30.349Z,17.40
2018-10-19T23:01:59.093Z,15.07
2018-10-19T23:04:27.755Z,14.70
2018-10-19T23:06:56.518Z,16.47
2018-10-19T23:09:25.194Z,15.37
2018-10-19T23:11:53.879Z,16.63
2018-10-19T23:14:22.684Z,11.63
2018-10-19T23:16:51.310Z,13.33
2018-10-19T23:19:19.965Z,19.00
2018-10-19T23:21:49.254Z,18.80
2018-10-19T23:24:18.100Z,15.40
2018-10-19T23:26:46.745Z,15.43
2018-10-19T23:29:15.624Z,20.47
2018-10-19T23:31:44.176Z,19.13
2018-10-19T23:34:12.963Z,16.43
2018-10-19T23:36:41.697Z,17.20
2018-10-19T23:39:11.721Z,19.03
2018-10-19T23:41:41.175Z,18.87
2018-10-19T23:44:10.243Z,21.17
2018-10-19T23:46:38.962Z,26.27
2018-10-19T23:49:07.832Z,28.57
2018-10-19T23:51:36.466Z,31.37
2018-10-19T23:54:05.304Z,16.87
2018-10-19T23:56:33.943Z,15.40
2018-10-19T23:59:02.662Z,15.53
